createdAt,value
2022-12-31T00:01:01.523Z,98479.88
2022-12-31T00:03:29.276Z,98461.50
2022-12-31T00:05:57.156Z,98463.31
2022-12-31T00:08:24.672Z,98463.31
2022-12-31T00:10:52.836Z,98465.97
2022-12-31T00:13:20.258Z,98471.28
2022-12-31T00:15:47.912Z,98470.47
2022-12-31T00:18:15.700Z,98477.78
2022-12-31T00:20:43.993Z,98476.16
2022-12-31T00:23:12.039Z,98476.34
2022-12-31T00:25:39.814Z,98477.38
2022-12-31T00:28:07.111Z,98485.50
2022-12-31T00:30:34.797Z,98477.72
2022-12-31T00:33:02.281Z,98480.38
2022-12-31T00:35:30.747Z,98488.34
2022-12-31T00:37:58.138Z,98486.72
2022-12-31T00:40:25.800Z,98485.06
2022-12-31T00:42:53.090Z,98498.31
2022-12-31T00:45:20.777Z,98496.69
2022-12-31T00:47:48.087Z,98500.16
2022-12-31T00:50:15.746Z,98494.03
2022-12-31T00:52:43.126Z,98490.75
2022-12-31T00:55:10.666Z,98492.38
2022-12-31T00:57:38.175Z,98501.38
2022-12-31T01:00:07.637Z,98497.06
2022-12-31T01:02:35.112Z,98502.38
2022-12-31T01:05:03.015Z,98517.31
2022-12-31T01:07:30.931Z,98500.56
2022-12-31T01:09:58.585Z,98492.75
2022-12-31T01:12:25.952Z,98501.72
2022-12-31T01:14:53.567Z,98494.78
2022-12-31T01:17:21.042Z,98495.59
2022-12-31T01:19:48.566Z,98504.59
2022-12-31T01:22:16.101Z,98512.56
2022-12-31T01:24:43.671Z,98514.38
2022-12-31T01:27:11.010Z,98522.34
2022-12-31T01:29:38.542Z,98532.34
2022-12-31T01:32:06.600Z,98529.69
2022-12-31T01:34:34.191Z,98514.38
2022-12-31T01:37:01.820Z,98511.09
2022-12-31T01:39:29.422Z,98505.78
2022-12-31T01:41:58.024Z,98488.19
2022-12-31T01:44:25.578Z,98496.34
2022-12-31T01:46:54.902Z,98477.56
2022-12-31T01:49:31.068Z,98509.81
2022-12-31T01:52:32.655Z,98505.16
2022-12-31T01:55:08.203Z,98498.16
2022-12-31T01:57:37.734Z,98504.28
2022-12-31T02:00:06.470Z,98514.09
2022-12-31T02:02:34.135Z,98511.44
2022-12-31T02:05:09.453Z,98502.66
2022-12-31T02:07:37.099Z,98500.19
2022-12-31T02:10:05.255Z,98494.06
2022-12-31T02:12:32.767Z,98502.84
2022-12-31T02:15:00.891Z,98518.78
2022-12-31T02:17:47.739Z,98517.97
2022-12-31T02:20:52.602Z,98509.81
2022-12-31T02:23:36.587Z,98506.13
2022-12-31T02:26:32.586Z,98500.81
2022-12-31T02:29:21.351Z,98496.34
2022-12-31T02:32:07.855Z,98499.00
2022-12-31T02:34:46.305Z,98484.06
2022-12-31T02:37:15.853Z,98488.38
2022-12-31T02:39:44.121Z,98482.88
2022-12-31T02:42:12.280Z,98478.59
2022-12-31T02:44:41.835Z,98473.44
2022-12-31T02:47:09.745Z,98467.97
2022-12-31T02:49:42.405Z,98453.19
2022-12-31T02:52:36.620Z,98446.91
2022-12-31T02:55:25.688Z,98446.09
2022-12-31T02:58:18.201Z,98433.81
2022-12-31T03:01:10.650Z,98419.53
2022-12-31T03:03:39.434Z,98424.84
2022-12-31T03:06:08.963Z,98430.16
2022-12-31T03:08:56.683Z,98455.84
2022-12-31T03:11:42.603Z,98471.63
2022-12-31T03:14:10.275Z,98472.63
2022-12-31T03:16:37.614Z,98477.94
2022-12-31T03:19:23.907Z,98472.63
2022-12-31T03:22:09.887Z,98497.53
2022-12-31T03:24:56.607Z,98494.88
2022-12-31T03:27:24.018Z,98494.06
2022-12-31T03:29:51.768Z,98488.94
2022-12-31T03:32:19.194Z,98495.09
2022-12-31T03:34:46.861Z,98486.09
2022-12-31T03:37:14.663Z,98482.63
2022-12-31T03:39:42.600Z,98485.28
2022-12-31T03:42:10.087Z,98502.03
2022-12-31T03:44:37.652Z,98498.56
2022-12-31T03:47:05.583Z,98477.50
2022-12-31T03:49:33.323Z,98487.94
2022-12-31T03:52:03.060Z,98491.59
2022-12-31T03:54:31.032Z,98497.75
2022-12-31T03:57:00.384Z,98505.69
2022-12-31T03:59:28.159Z,98505.69
2022-12-31T04:01:55.809Z,98505.50
2022-12-31T04:04:24.152Z,98510.16
2022-12-31T04:06:51.581Z,98506.69
2022-12-31T04:09:19.347Z,98501.22
2022-12-31T04:11:46.726Z,98509.19
2022-12-31T04:14:14.725Z,98507.50
2022-12-31T04:16:42.162Z,98504.84
2022-12-31T04:19:11.095Z,98504.84
2022-12-31T04:21:38.390Z,98504.84
2022-12-31T04:24:06.992Z,98493.41
2022-12-31T04:26:34.664Z,98503.22
2022-12-31T04:29:03.071Z,98510.16
2022-12-31T04:31:30.741Z,98511.84
2022-12-31T04:33:58.451Z,98526.94
2022-12-31T04:36:25.824Z,98524.28
2022-12-31T04:38:53.563Z,98531.41
2022-12-31T04:41:21.182Z,98531.41
2022-12-31T04:43:52.732Z,98527.75
2022-12-31T04:46:32.610Z,98528.75
2022-12-31T04:49:02.504Z,98531.41
2022-12-31T04:51:31.491Z,98535.72
2022-12-31T04:53:59.363Z,98533.25
2022-12-31T04:56:27.866Z,98539.38
2022-12-31T04:58:55.559Z,98542.03
2022-12-31T05:01:23.318Z,98531.41
2022-12-31T05:03:51.400Z,98547.34
2022-12-31T05:06:21.418Z,98548.19
2022-12-31T05:08:49.855Z,98543.69
2022-12-31T05:11:18.579Z,98550.00
2022-12-31T05:13:46.528Z,98541.22
2022-12-31T05:16:14.122Z,98541.22
2022-12-31T05:18:41.816Z,98549.00
2022-12-31T05:21:10.377Z,98544.69
2022-12-31T05:23:37.989Z,98539.38
2022-12-31T05:26:05.232Z,98535.09
2022-12-31T05:28:32.942Z,98534.28
2022-12-31T05:31:01.079Z,98528.97
2022-12-31T05:33:28.875Z,98528.97
2022-12-31T05:35:58.305Z,98535.09
2022-12-31T05:38:26.474Z,98535.09
2022-12-31T05:41:01.659Z,98533.44
2022-12-31T05:43:29.631Z,98532.59
2022-12-31T05:45:57.291Z,98536.72
2022-12-31T05:48:24.956Z,98544.03
2022-12-31T05:50:52.347Z,98547.34
2022-12-31T05:53:19.940Z,98550.19
2022-12-31T05:55:48.188Z,98556.31
2022-12-31T05:58:16.441Z,98558.97
2022-12-31T06:00:43.932Z,98558.16
2022-12-31T06:03:11.693Z,98558.97
2022-12-31T06:05:41.014Z,98556.31
2022-12-31T06:08:09.370Z,98555.50
2022-12-31T06:10:36.734Z,98559.97
2022-12-31T06:13:04.770Z,98570.59
2022-12-31T06:15:32.353Z,98577.75
2022-12-31T06:18:00.066Z,98581.22
2022-12-31T06:20:27.350Z,98579.56
2022-12-31T06:22:55.094Z,98586.53
2022-12-31T06:25:22.343Z,98575.91
2022-12-31T06:27:50.038Z,98576.75
2022-12-31T06:30:17.365Z,98566.94
2022-12-31T06:32:45.221Z,98566.13
2022-12-31T06:35:13.093Z,98565.28
2022-12-31T06:37:41.107Z,98559.97
2022-12-31T06:40:09.140Z,98559.97
2022-12-31T06:42:36.964Z,98561.63
2022-12-31T06:45:04.688Z,98556.31
2022-12-31T06:47:32.327Z,98548.53
2022-12-31T06:49:59.657Z,98557.16
2022-12-31T06:52:27.284Z,98569.78
2022-12-31T06:54:54.964Z,98570.59
2022-12-31T06:57:23.532Z,98574.25
2022-12-31T06:59:51.359Z,98580.41
2022-12-31T07:02:33.935Z,98578.56
2022-12-31T07:05:17.278Z,98591.84
2022-12-31T07:08:05.070Z,98590.84
2022-12-31T07:10:58.529Z,98590.16
2022-12-31T07:14:05.123Z,98598.00
2022-12-31T07:16:36.202Z,98597.16
2022-12-31T07:19:33.586Z,98596.16
2022-12-31T07:22:02.125Z,98596.16
2022-12-31T07:24:30.110Z,98607.78
2022-12-31T07:27:18.559Z,98613.09
2022-12-31T07:29:56.688Z,98620.06
2022-12-31T07:32:42.811Z,98625.38
2022-12-31T07:35:34.728Z,98621.69
2022-12-31T07:38:36.798Z,98616.38
2022-12-31T07:41:14.534Z,98612.72
2022-12-31T07:44:06.320Z,98612.72
2022-12-31T07:46:42.960Z,98602.13
2022-12-31T07:49:13.800Z,98603.75
2022-12-31T07:51:42.204Z,98616.03
2022-12-31T07:54:13.937Z,98621.13
2022-12-31T07:56:43.886Z,98626.28
2022-12-31T07:59:37.368Z,98629.56
2022-12-31T08:02:23.883Z,98618.97
2022-12-31T08:05:12.339Z,98624.28
2022-12-31T08:08:05.954Z,98625.94
2022-12-31T08:10:47.721Z,98628.59
2022-12-31T08:13:17.263Z,98624.91
2022-12-31T08:15:44.913Z,98630.88
2022-12-31T08:18:12.666Z,98625.56
2022-12-31T08:21:12.132Z,98636.19
2022-12-31T08:24:07.464Z,98633.34
2022-12-31T08:26:53.173Z,98637.81
2022-12-31T08:29:28.580Z,98628.03
2022-12-31T08:32:25.781Z,98618.22
2022-12-31T08:35:14.562Z,98621.53
2022-12-31T08:37:48.063Z,98619.88
2022-12-31T08:40:20.841Z,98617.22
2022-12-31T08:43:14.388Z,98627.84
2022-12-31T08:45:50.354Z,98645.44
2022-12-31T08:48:40.788Z,98640.13
2022-12-31T08:51:19.773Z,98657.69
2022-12-31T08:53:48.433Z,98655.88
2022-12-31T08:56:36.431Z,98646.06
2022-12-31T08:59:18.707Z,98638.28
2022-12-31T09:02:08.966Z,98646.06
2022-12-31T09:05:00.002Z,98645.06
2022-12-31T09:07:46.691Z,98635.44
2022-12-31T09:10:33.455Z,98622.16
2022-12-31T09:13:15.292Z,98619.50
2022-12-31T09:15:46.532Z,98620.16
2022-12-31T09:18:14.933Z,98623.81
2022-12-31T09:20:44.060Z,98619.31
2022-12-31T09:23:13.365Z,98602.56
2022-12-31T09:26:15.834Z,98603.19
2022-12-31T09:29:06.779Z,98591.75
2022-12-31T09:31:34.010Z,98613.00
2022-12-31T09:34:12.907Z,98613.66
2022-12-31T09:36:50.579Z,98621.63
2022-12-31T09:39:39.881Z,98632.88
2022-12-31T09:42:19.465Z,98622.44
2022-12-31T09:44:52.831Z,98636.53
2022-12-31T09:47:43.368Z,98622.44
2022-12-31T09:50:36.376Z,98633.06
2022-12-31T09:53:24.539Z,98627.75
2022-12-31T09:56:11.444Z,98634.72
2022-12-31T09:59:08.673Z,98624.09
2022-12-31T10:01:53.612Z,98609.78
2022-12-31T10:04:48.210Z,98615.94
2022-12-31T10:07:34.741Z,98604.47
2022-12-31T10:10:23.813Z,98607.13
2022-12-31T10:13:10.379Z,98606.16
2022-12-31T10:15:48.594Z,98600.84
2022-12-31T10:18:54.053Z,98597.16
2022-12-31T10:21:51.327Z,98595.53
2022-12-31T10:24:54.433Z,98604.31
2022-12-31T10:27:45.373Z,98616.78
2022-12-31T10:30:18.936Z,98614.72
2022-12-31T10:33:18.184Z,98616.41
2022-12-31T10:35:59.121Z,98615.75
2022-12-31T10:38:38.579Z,98614.13
2022-12-31T10:41:40.452Z,98629.84
2022-12-31T10:44:45.075Z,98645.63
2022-12-31T10:47:34.086Z,98651.09
2022-12-31T10:50:16.059Z,98640.47
2022-12-31T10:53:01.767Z,98627.03
2022-12-31T10:55:39.798Z,98629.84
2022-12-31T10:58:07.407Z,98614.72
2022-12-31T11:00:45.606Z,98627.03
2022-12-31T11:03:38.478Z,98621.72
2022-12-31T11:06:30.608Z,98616.41
2022-12-31T11:09:13.416Z,98618.03
2022-12-31T11:12:16.412Z,98611.09
2022-12-31T11:15:02.378Z,98615.38
2022-12-31T11:18:25.355Z,98618.88
2022-12-31T11:21:37.866Z,98611.91
2022-12-31T11:24:25.775Z,98610.06
2022-12-31T11:27:18.330Z,98604.75
2022-12-31T11:29:56.364Z,98601.09
2022-12-31T11:32:39.187Z,98598.44
2022-12-31T11:35:15.320Z,98594.13
2022-12-31T11:37:58.273Z,98600.28
2022-12-31T11:40:33.983Z,98593.13
2022-12-31T11:43:24.614Z,98593.13
2022-12-31T11:45:58.090Z,98593.13
2022-12-31T11:48:59.569Z,98580.47
2022-12-31T11:51:39.148Z,98580.09
2022-12-31T11:54:37.474Z,98587.44
2022-12-31T11:57:33.359Z,98591.53
2022-12-31T12:00:22.903Z,98593.03
2022-12-31T12:02:59.918Z,98586.88
2022-12-31T12:05:28.236Z,98593.84
2022-12-31T12:07:56.295Z,98588.34
2022-12-31T12:10:35.715Z,98577.72
2022-12-31T12:13:23.896Z,98585.50
2022-12-31T12:15:55.399Z,98570.41
2022-12-31T12:18:25.704Z,98577.34
2022-12-31T12:21:00.653Z,98568.34
2022-12-31T12:23:28.563Z,98579.63
2022-12-31T12:25:56.821Z,98573.31
2022-12-31T12:28:28.319Z,98572.91
2022-12-31T12:31:04.969Z,98568.25
2022-12-31T12:33:43.643Z,98576.69
2022-12-31T12:36:14.490Z,98574.84
2022-12-31T12:38:42.741Z,98568.13
2022-12-31T12:41:21.650Z,98570.41
2022-12-31T12:43:50.448Z,98574.09
2022-12-31T12:46:19.608Z,98577.41
2022-12-31T12:48:49.541Z,98569.03
2022-12-31T12:51:55.695Z,98574.97
2022-12-31T12:54:36.936Z,98575.44
2022-12-31T12:57:34.292Z,98570.75
2022-12-31T13:00:29.634Z,98577.53
2022-12-31T13:03:19.455Z,98565.50
2022-12-31T13:06:06.350Z,98568.81
2022-12-31T13:08:52.116Z,98568.41
2022-12-31T13:11:59.851Z,98548.81
2022-12-31T13:14:46.955Z,98553.09
2022-12-31T13:17:40.093Z,98559.50
2022-12-31T13:20:47.089Z,98558.31
2022-12-31T13:23:39.831Z,98554.59
2022-12-31T13:26:19.426Z,98569.56
2022-12-31T13:28:49.148Z,98561.19
2022-12-31T13:31:26.317Z,98558.53
2022-12-31T13:34:01.152Z,98569.84
2022-12-31T13:36:32.719Z,98575.16
2022-12-31T13:39:05.472Z,98583.78
2022-12-31T13:41:49.487Z,98586.06
2022-12-31T13:44:41.886Z,98584.59
2022-12-31T13:47:31.902Z,98580.53
2022-12-31T13:50:14.264Z,98588.34
2022-12-31T13:52:48.837Z,98596.97
2022-12-31T13:55:32.126Z,98596.16
2022-12-31T13:58:14.615Z,98596.97
2022-12-31T14:00:58.385Z,98592.28
2022-12-31T14:04:04.676Z,98604.75
2022-12-31T14:07:09.172Z,98613.38
2022-12-31T14:09:37.758Z,98611.72
2022-12-31T14:12:26.578Z,98613.16
2022-12-31T14:15:03.135Z,98612.53
2022-12-31T14:17:48.490Z,98608.88
2022-12-31T14:20:26.796Z,98610.16
2022-12-31T14:23:06.933Z,98619.34
2022-12-31T14:25:56.033Z,98626.47
2022-12-31T14:28:30.332Z,98625.66
2022-12-31T14:31:19.965Z,98624.84
2022-12-31T14:33:54.313Z,98610.72
2022-12-31T14:36:34.121Z,98630.16
2022-12-31T14:39:31.119Z,98624.44
2022-12-31T14:42:21.892Z,98629.97
2022-12-31T14:44:56.190Z,98610.97
2022-12-31T14:47:30.863Z,98620.56
2022-12-31T14:50:04.540Z,98619.75
2022-12-31T14:52:35.548Z,98615.47
2022-12-31T14:55:08.937Z,98623.44
2022-12-31T14:58:16.811Z,98622.41
2022-12-31T15:00:26.678Z,98624.09
2022-12-31T15:03:00.029Z,98629.41
2022-12-31T15:05:36.685Z,98618.75
2022-12-31T15:08:40.946Z,98621.41
2022-12-31T15:11:24.070Z,98631.84
2022-12-31T15:14:36.756Z,98625.72
2022-12-31T15:17:15.812Z,98615.06
2022-12-31T15:20:01.468Z,98624.91
2022-12-31T15:22:48.763Z,98636.34
2022-12-31T15:25:28.233Z,98632.06
2022-12-31T15:27:58.789Z,98626.53
2022-12-31T15:30:39.844Z,98636.34
2022-12-31T15:33:17.451Z,98631.84
2022-12-31T15:35:51.348Z,98631.84
2022-12-31T15:38:29.732Z,98634.34
2022-12-31T15:40:59.043Z,98637.63
2022-12-31T15:43:31.081Z,98643.34
2022-12-31T15:45:59.695Z,98644.97
2022-12-31T15:48:37.788Z,98646.63
2022-12-31T15:51:05.675Z,98639.66
2022-12-31T15:53:38.699Z,98638.03
2022-12-31T15:56:12.214Z,98638.03
2022-12-31T15:58:40.387Z,98652.97
2022-12-31T16:01:20.244Z,98654.63
2022-12-31T16:04:05.716Z,98664.63
2022-12-31T16:06:37.350Z,98654.63
2022-12-31T16:09:09.879Z,98652.78
2022-12-31T16:11:41.651Z,98649.31
2022-12-31T16:14:20.098Z,98646.81
2022-12-31T16:17:00.096Z,98650.28
2022-12-31T16:19:32.873Z,98655.63
2022-12-31T16:22:13.341Z,98668.91
2022-12-31T16:25:02.704Z,98657.28
2022-12-31T16:27:30.260Z,98657.28
2022-12-31T16:30:04.827Z,98658.09
2022-12-31T16:32:38.451Z,98667.94
2022-12-31T16:35:34.816Z,98672.41
2022-12-31T16:38:03.895Z,98671.59
2022-12-31T16:40:31.505Z,98677.53
2022-12-31T16:42:59.188Z,98672.41
2022-12-31T16:45:34.480Z,98676.91
2022-12-31T16:48:17.213Z,98683.88
2022-12-31T16:50:48.094Z,98678.56
2022-12-31T16:53:19.628Z,98692.88
2022-12-31T16:56:11.443Z,98698.19
2022-12-31T16:58:45.241Z,98696.56
2022-12-31T17:01:23.111Z,98700.03
2022-12-31T17:03:58.263Z,98697.38
2022-12-31T17:06:28.381Z,98689.22
2022-12-31T17:08:55.994Z,98682.22
2022-12-31T17:11:42.634Z,98687.56
2022-12-31T17:14:10.144Z,98682.69
2022-12-31T17:17:01.772Z,98695.34
2022-12-31T17:19:36.523Z,98685.53
2022-12-31T17:22:07.727Z,98690.84
2022-12-31T17:24:36.574Z,98692.47
2022-12-31T17:27:06.184Z,98690.84
2022-12-31T17:29:34.518Z,98689.81
2022-12-31T17:32:05.463Z,98692.47
2022-12-31T17:34:40.095Z,98700.47
2022-12-31T17:37:09.453Z,98693.34
2022-12-31T17:39:52.274Z,98692.47
2022-12-31T17:42:36.540Z,98697.81
2022-12-31T17:45:20.892Z,98701.50
2022-12-31T17:47:52.327Z,98705.19
2022-12-31T17:50:26.262Z,98706.00
2022-12-31T17:53:00.625Z,98704.34
2022-12-31T17:55:29.167Z,98696.16
2022-12-31T17:57:57.943Z,98705.19
2022-12-31T18:00:27.316Z,98710.50
2022-12-31T18:02:54.893Z,98711.31
2022-12-31T18:05:24.071Z,98712.13
2022-12-31T18:07:52.290Z,98708.03
2022-12-31T18:10:22.789Z,98717.47
2022-12-31T18:12:51.995Z,98719.47
2022-12-31T18:15:24.273Z,98714.16
2022-12-31T18:17:51.671Z,98714.53
2022-12-31T18:20:19.486Z,98715.38
2022-12-31T18:22:47.016Z,98708.38
2022-12-31T18:25:19.323Z,98705.53
2022-12-31T18:27:48.039Z,98709.22
2022-12-31T18:30:18.931Z,98710.03
2022-12-31T18:32:46.726Z,98715.38
2022-12-31T18:35:40.756Z,98709.22
2022-12-31T18:38:11.628Z,98710.84
2022-12-31T18:40:42.761Z,98716.38
2022-12-31T18:43:18.617Z,98712.06
2022-12-31T18:45:46.925Z,98718.19
2022-12-31T18:48:15.419Z,98715.53
2022-12-31T18:50:43.140Z,98721.03
2022-12-31T18:53:19.297Z,98716.56
2022-12-31T18:55:50.512Z,98708.59
2022-12-31T18:58:18.870Z,98712.88
2022-12-31T19:00:47.603Z,98719.88
2022-12-31T19:03:21.510Z,98710.84
2022-12-31T19:05:51.022Z,98712.53
2022-12-31T19:08:22.053Z,98730.13
2022-12-31T19:10:51.535Z,98721.97
2022-12-31T19:13:20.857Z,98727.94
2022-12-31T19:15:52.049Z,98715.44
2022-12-31T19:18:19.832Z,98715.44
2022-12-31T19:20:48.132Z,98722.38
2022-12-31T19:23:18.442Z,98727.72
2022-12-31T19:25:47.330Z,98738.19
2022-12-31T19:28:23.778Z,98733.69
2022-12-31T19:30:52.099Z,98736.34
2022-12-31T19:33:20.039Z,98742.50
2022-12-31T19:35:48.066Z,98732.69
2022-12-31T19:38:23.791Z,98735.97
2022-12-31T19:40:53.471Z,98736.78
2022-12-31T19:43:22.585Z,98730.66
2022-12-31T19:45:51.158Z,98719.19
2022-12-31T19:48:24.685Z,98722.66
2022-12-31T19:50:56.332Z,98719.19
2022-12-31T19:53:26.182Z,98726.97
2022-12-31T19:55:54.452Z,98741.94
2022-12-31T19:58:26.628Z,98752.59
2022-12-31T20:01:01.916Z,98760.94
2022-12-31T20:03:32.549Z,98758.91
2022-12-31T20:06:10.032Z,98760.56
2022-12-31T20:08:38.873Z,98757.06
2022-12-31T20:11:15.399Z,98751.94
2022-12-31T20:13:43.602Z,98755.25
2022-12-31T20:16:19.281Z,98752.38
2022-12-31T20:18:47.690Z,98766.72
2022-12-31T20:21:19.292Z,98765.88
2022-12-31T20:23:48.408Z,98753.59
2022-12-31T20:26:16.895Z,98757.06
2022-12-31T20:28:44.362Z,98755.25
2022-12-31T20:31:14.805Z,98757.69
2022-12-31T20:33:42.347Z,98748.06
2022-12-31T20:36:13.252Z,98754.22
2022-12-31T20:38:41.216Z,98749.91
2022-12-31T20:41:13.667Z,98740.09
2022-12-31T20:43:42.548Z,98743.41
2022-12-31T20:46:22.252Z,98745.41
2022-12-31T20:48:52.473Z,98733.09
2022-12-31T20:51:21.440Z,98731.94
2022-12-31T20:53:51.698Z,98722.91
2022-12-31T20:56:19.269Z,98730.91
2022-12-31T20:58:47.418Z,98738.88
2022-12-31T21:01:16.141Z,98731.09
2022-12-31T21:06:34.079Z,98736.41
2022-12-31T21:09:02.957Z,98732.75
2022-12-31T21:11:49.283Z,98739.91
2022-12-31T21:14:16.762Z,98740.91
2022-12-31T21:16:45.122Z,98737.25
2022-12-31T21:19:12.914Z,98740.56
2022-12-31T21:21:40.789Z,98733.38
2022-12-31T21:24:08.512Z,98733.56
2022-12-31T21:26:36.252Z,98721.91
2022-12-31T21:29:03.625Z,98728.25
2022-12-31T21:31:31.234Z,98738.88
2022-12-31T21:33:58.695Z,98732.56
2022-12-31T21:36:26.323Z,98738.88
2022-12-31T21:38:53.837Z,98729.91
2022-12-31T21:41:40.781Z,98735.88
2022-12-31T21:44:10.457Z,98731.53
2022-12-31T21:46:54.513Z,98740.34
2022-12-31T21:49:27.620Z,98737.69
2022-12-31T21:52:14.035Z,98755.31
2022-12-31T21:54:59.916Z,98750.16
2022-12-31T21:57:27.522Z,98754.50
2022-12-31T22:00:41.260Z,98765.75
2022-12-31T22:03:20.615Z,98754.28
2022-12-31T22:05:52.021Z,98759.81
2022-12-31T22:08:22.069Z,98765.97
2022-12-31T22:10:52.738Z,98765.16
2022-12-31T22:13:21.116Z,98782.75
2022-12-31T22:15:52.689Z,98774.75
2022-12-31T22:18:21.269Z,98767.81
2022-12-31T22:20:49.084Z,98767.59
2022-12-31T22:23:16.767Z,98774.75
2022-12-31T22:25:44.839Z,98777.44
2022-12-31T22:28:37.543Z,98777.44
2022-12-31T22:31:00.749Z,98775.78
2022-12-31T22:33:28.364Z,98777.81
2022-12-31T22:36:07.242Z,98772.50
2022-12-31T22:38:34.963Z,98775.34
2022-12-31T22:41:05.533Z,98775.50
2022-12-31T22:43:35.570Z,98781.47
2022-12-31T22:46:11.679Z,98770.00
2022-12-31T22:48:40.203Z,98770.81
2022-12-31T22:51:09.071Z,98767.53
2022-12-31T22:53:39.580Z,98765.88
2022-12-31T22:56:09.691Z,98768.56
2022-12-31T22:58:37.532Z,98758.91
2022-12-31T23:01:29.311Z,98761.56
2022-12-31T23:03:57.519Z,98760.56
2022-12-31T23:06:25.175Z,98761.56
2022-12-31T23:09:11.883Z,98764.22
2022-12-31T23:11:40.322Z,98770.38
2022-12-31T23:14:29.897Z,98767.09
2022-12-31T23:17:31.313Z,98767.09
2022-12-31T23:20:19.354Z,98764.63
2022-12-31T23:23:07.813Z,98773.25
2022-12-31T23:25:46.977Z,98781.41
2022-12-31T23:28:23.249Z,98769.94
2022-12-31T23:30:51.828Z,98759.28
2022-12-31T23:33:23.016Z,98757.63
2022-12-31T23:35:50.826Z,98762.94
2022-12-31T23:38:18.915Z,98769.13
2022-12-31T23:40:47.187Z,98773.59
2022-12-31T23:43:23.222Z,98769.13
2022-12-31T23:45:51.776Z,98775.25
2022-12-31T23:48:19.544Z,98778.91
2022-12-31T23:50:53.837Z,98785.09
2022-12-31T23:53:25.270Z,98765.59
2022-12-31T23:55:53.314Z,98778.09
2022-12-31T23:58:22.158Z,98775.44
